Time;durP1;ratioP1;P1;durP2;ratioP2;P2;SDS_P1;SDS_P2;PMS_P1;PMS_P2;Temp;Humidity;BMP_temperature;BMP_pressure;BME280_temperature;BME280_humidity;BME280_pressure;Samples;Min_cycle;Max_cycle;Signal;HPM_P1;HPM_P2
2023/08/10 00:01:53;;;;;;;1.98;1.67;;;;;;;21.52;51.81;99664.41;5092379;28;20054;-44
2023/08/10 00:04:19;;;;;;;3.30;1.80;;;;;;;21.56;52.14;99661.97;5093455;28;20020;-45
2023/08/10 00:06:45;;;;;;;2.13;1.60;;;;;;;21.94;50.96;99663.09;5093580;28;20066;-43
2023/08/10 00:09:11;;;;;;;2.90;1.90;;;;;;;21.56;51.93;99665.47;5093822;28;20111;-44
2023/08/10 00:11:38;;;;;;;2.58;1.70;;;;;;;22.02;50.76;99672.53;5093650;28;20041;-46
2023/08/10 00:14:03;;;;;;;6.53;1.98;;;;;;;21.70;51.48;99662.97;5093343;28;20447;-45
2023/08/10 00:16:29;;;;;;;3.85;1.80;;;;;;;21.61;51.84;99659.22;5093416;28;20158;-44
2023/08/10 00:18:55;;;;;;;2.15;1.70;;;;;;;21.30;52.96;99662.03;5093197;28;20146;-44
2023/08/10 00:21:20;;;;;;;2.35;1.75;;;;;;;21.27;53.13;99646.38;5093508;28;20019;-44
2023/08/10 00:23:46;;;;;;;3.65;1.83;;;;;;;21.49;52.62;99662.25;5093002;28;20384;-45
2023/08/10 00:26:11;;;;;;;2.40;1.52;;;;;;;21.27;52.99;99666.09;5093161;28;20035;-47
2023/08/10 00:28:37;;;;;;;2.60;1.60;;;;;;;21.25;53.49;99662.88;5093023;28;20031;-45
2023/08/10 00:31:03;;;;;;;3.67;1.80;;;;;;;21.47;53.11;99667.94;5093191;28;20143;-46
2023/08/10 00:33:28;;;;;;;1.75;1.60;;;;;;;21.77;52.43;99671.59;5092965;28;20023;-44
2023/08/10 00:35:54;;;;;;;3.33;1.60;;;;;;;22.05;51.98;99683.63;5093250;28;20024;-44
2023/08/10 00:38:19;;;;;;;2.03;1.50;;;;;;;22.19;51.32;99685.69;5092670;28;20114;-45
2023/08/10 00:40:45;;;;;;;2.08;1.40;;;;;;;22.15;52.85;99696.28;5092752;28;20391;-46
2023/08/10 00:43:10;;;;;;;3.38;1.40;;;;;;;22.24;51.43;99691.09;5093007;28;20082;-46
2023/08/10 00:45:37;;;;;;;1.70;1.40;;;;;;;22.47;51.45;99699.63;5092448;28;20032;-44
2023/08/10 00:48:03;;;;;;;2.17;1.40;;;;;;;22.62;50.49;99694.88;5092871;28;20023;-43
2023/08/10 00:50:28;;;;;;;2.38;1.25;;;;;;;22.77;50.47;99695.81;5092313;28;20499;-45
2023/08/10 00:52:54;;;;;;;1.85;1.63;;;;;;;22.88;50.25;99693.81;5092598;28;20044;-45
2023/08/10 00:55:20;;;;;;;1.92;1.63;;;;;;;23.00;49.88;99686.94;5092603;28;20024;-45
2023/08/10 00:57:46;;;;;;;2.33;1.70;;;;;;;23.01;50.21;99679.59;5092684;28;20024;-47
2023/08/10 01:00:13;;;;;;;4.25;2.30;;;;;;;22.90;50.36;99678.88;5092727;28;20048;-45
2023/08/10 01:02:41;;;;;;;4.05;2.40;;;;;;;23.09;49.60;99662.69;5092429;28;20647;-44
2023/08/10 01:05:11;;;;;;;3.40;2.20;;;;;;;23.08;49.73;99655.66;5092759;28;20387;-47
2023/08/10 01:07:39;;;;;;;;;;;;;;;22.99;50.27;99650.03;5093284;28;20436;-46
2023/08/10 01:10:27;;;;;;;4.18;2.00;;;;;;;22.91;50.28;99644.44;5092190;28;19919;-45
2023/08/10 01:13:14;;;;;;;3.63;2.20;;;;;;;22.79;50.38;99644.81;5091375;28;20032;-44
2023/08/10 01:15:55;;;;;;;3.33;1.95;;;;;;;22.82;50.69;99646.94;5092366;28;20225;-44
2023/08/10 01:18:26;;;;;;;2.85;2.00;;;;;;;22.87;50.53;99644.19;5092411;28;20081;-48
2023/08/10 01:20:53;;;;;;;2.70;1.75;;;;;;;22.92;50.38;99657.69;5092264;28;20028;-47
2023/08/10 01:23:37;;;;;;;3.17;1.90;;;;;;;22.81;50.88;99657.00;5092041;28;20032;-48
2023/08/10 01:26:04;;;;;;;2.70;1.88;;;;;;;22.61;52.03;99657.19;5092099;28;20075;-48
2023/08/10 01:28:32;;;;;;;2.83;1.88;;;;;;;22.53;51.44;99649.69;5091796;28;20020;-49
2023/08/10 01:30:58;;;;;;;2.22;1.70;;;;;;;22.83;50.39;99645.88;5091889;28;20034;-46
2023/08/10 01:33:23;;;;;;;2.90;2.13;;;;;;;22.96;50.47;99652.50;5092358;28;20028;-46
2023/08/10 01:35:49;;;;;;;3.53;1.80;;;;;;;23.05;50.10;99639.94;5092153;28;20106;-45
2023/08/10 01:38:15;;;;;;;6.15;2.00;;;;;;;22.99;50.07;99638.38;5091552;28;20038;-48
2023/08/10 01:40:40;;;;;;;3.35;1.77;;;;;;;22.93;50.83;99640.31;5091707;28;20018;-45
2023/08/10 01:43:06;;;;;;;3.08;1.70;;;;;;;23.05;50.16;99639.94;5091721;28;20028;-48
2023/08/10 01:45:31;;;;;;;3.75;1.80;;;;;;;22.87;50.96;99649.63;5091555;28;20036;-45
2023/08/10 01:48:26;;;;;;;2.55;1.77;;;;;;;23.00;51.15;99635.38;5091516;28;20023;-44
2023/08/10 01:50:56;;;;;;;2.72;1.80;;;;;;;23.00;50.69;99638.09;5091318;28;20050;-44
2023/08/10 01:53:28;;;;;;;2.00;1.63;;;;;;;23.07;51.04;99651.31;5091704;28;20031;-45
2023/08/10 01:55:54;;;;;;;2.13;1.60;;;;;;;22.92;51.06;99654.97;5091653;28;20039;-45
2023/08/10 01:58:19;;;;;;;2.60;1.50;;;;;;;21.91;54.51;99660.94;5091467;28;20028;-44
2023/08/10 02:00:45;;;;;;;3.28;1.55;;;;;;;21.57;55.19;99664.41;5091424;28;20087;-43
2023/08/10 02:03:11;;;;;;;2.10;1.30;;;;;;;21.50;55.93;99663.88;5091340;28;20111;-46
2023/08/10 02:05:36;;;;;;;1.30;1.20;;;;;;;22.21;53.24;99657.22;5091276;28;20046;-45
2023/08/10 02:08:02;;;;;;;3.78;1.55;;;;;;;22.65;52.97;99664.47;5091324;28;20032;-45
2023/08/10 02:10:28;;;;;;;2.03;1.45;;;;;;;23.00;51.78;99665.22;5090839;28;20032;-44
2023/08/10 02:12:54;;;;;;;3.15;1.60;;;;;;;23.23;51.26;99666.34;5091071;28;20028;-47
2023/08/10 02:15:20;;;;;;;2.03;1.50;;;;;;;23.44;50.44;99666.09;5091102;28;20022;-44
2023/08/10 02:17:45;;;;;;;2.13;1.38;;;;;;;23.55;50.04;99659.44;5090894;28;20023;-45
2023/08/10 02:20:14;;;;;;;1.60;1.30;;;;;;;23.55;50.26;99664.03;5091172;28;20180;-45
2023/08/10 02:22:42;;;;;;;1.80;1.42;;;;;;;23.51;50.62;99657.59;5090971;28;20464;-43
2023/08/10 02:25:09;;;;;;;2.25;1.42;;;;;;;23.55;50.21;99661.31;5089786;28;20148;-47
2023/08/10 02:27:35;;;;;;;1.88;1.52;;;;;;;23.41;50.59;99663.97;5091008;28;20053;-44
2023/08/10 02:30:01;;;;;;;1.88;1.58;;;;;;;23.20;51.37;99655.25;5090662;28;20032;-45
2023/08/10 02:32:27;;;;;;;2.40;1.88;;;;;;;22.90;52.57;99664.50;5090758;28;20036;-47
2023/08/10 02:34:52;;;;;;;1.63;1.50;;;;;;;23.01;52.34;99664.09;5090826;28;20080;-45
2023/08/10 02:37:18;;;;;;;1.95;1.52;;;;;;;23.22;51.88;99666.63;5090827;28;20153;-44
2023/08/10 02:39:44;;;;;;;3.67;1.70;;;;;;;23.39;51.21;99663.44;5090519;28;20475;-44
2023/08/10 02:42:10;;;;;;;3.83;1.70;;;;;;;23.17;51.41;99653.09;5090785;28;20039;-44
2023/08/10 02:44:35;;;;;;;3.15;1.90;;;;;;;22.22;54.56;99663.47;5090917;28;20032;-43
2023/08/10 02:47:01;;;;;;;3.83;1.83;;;;;;;21.93;55.44;99677.72;5090830;28;20035;-44
2023/08/10 02:49:26;;;;;;;2.53;1.83;;;;;;;22.30;54.54;99675.63;5090508;28;20024;-43
2023/08/10 02:51:52;;;;;;;4.47;2.00;;;;;;;22.75;53.35;99668.19;5090420;28;20034;-43
2023/08/10 02:54:17;;;;;;;6.53;1.88;;;;;;;23.03;52.43;99659.22;5090365;28;20024;-47
2023/08/10 02:56:42;;;;;;;4.85;1.92;;;;;;;23.05;52.68;99652.72;5090189;28;20028;-45
2023/08/10 02:59:08;;;;;;;2.67;1.90;;;;;;;22.51;54.18;99644.53;5090566;28;20103;-46
2023/08/10 03:01:34;;;;;;;2.13;1.60;;;;;;;22.44;54.70;99646.75;5090683;28;20404;-45
2023/08/10 03:03:59;;;;;;;3.58;1.83;;;;;;;22.50;54.69;99656.47;5090710;28;20079;-45
2023/08/10 03:06:24;;;;;;;2.42;1.50;;;;;;;22.69;54.13;99667.41;5090471;28;20495;-43
2023/08/10 03:08:50;;;;;;;3.30;1.70;;;;;;;22.93;53.46;99672.88;5090584;28;20031;-45
2023/08/10 03:11:16;;;;;;;1.77;1.50;;;;;;;23.19;52.77;99680.78;5090441;28;20024;-44
2023/08/10 03:13:41;;;;;;;4.50;2.05;;;;;;;23.38;52.03;99680.81;5090477;28;20056;-43
2023/08/10 03:16:07;;;;;;;2.08;1.55;;;;;;;23.56;51.94;99676.53;5090208;28;20024;-44
2023/08/10 03:18:32;;;;;;;3.70;1.77;;;;;;;23.58;51.80;99675.13;5090342;28;20085;-45
2023/08/10 03:20:57;;;;;;;5.15;1.70;;;;;;;23.64;50.01;99670.44;5090265;28;20391;-43
2023/08/10 03:23:23;;;;;;;5.97;3.45;;;;;;;23.17;51.91;99664.78;5090106;28;20418;-45
2023/08/10 03:25:48;;;;;;;48.42;30.05;;;;;;;23.37;51.79;99669.16;5089064;28;20020;-46
2023/08/10 03:28:14;;;;;;;3.35;2.38;;;;;;;22.63;53.85;99668.56;5069803;28;20536;-46
2023/08/10 03:30:40;;;;;;;3.20;2.03;;;;;;;22.31;55.47;99677.22;5069661;28;20056;-44
2023/08/10 03:33:06;;;;;;;3.50;1.92;;;;;;;22.19;55.76;99667.53;5070252;28;20051;-44
2023/08/10 03:35:31;;;;;;;4.43;2.03;;;;;;;22.88;53.77;99663.97;5070174;28;20445;-45
2023/08/10 03:37:57;;;;;;;2.10;1.70;;;;;;;23.27;52.57;99658.44;5073851;28;20048;-45
2023/08/10 03:40:22;;;;;;;4.60;1.90;;;;;;;23.55;51.71;99662.16;5073913;28;20080;-46
2023/08/10 03:42:48;;;;;;;2.83;1.80;;;;;;;23.79;51.10;99664.03;5073905;28;20024;-46
2023/08/10 03:45:13;;;;;;;3.72;2.10;;;;;;;23.96;50.93;99658.09;5073708;28;20029;-44
2023/08/10 03:47:38;;;;;;;2.47;1.80;;;;;;;23.88;51.23;99661.47;5073721;28;20031;-44
2023/08/10 03:50:04;;;;;;;3.20;1.90;;;;;;;23.93;50.60;99664.09;5073497;28;20021;-44
2023/08/10 03:52:30;;;;;;;5.25;1.73;;;;;;;24.00;49.02;99661.81;5073727;28;20024;-46
2023/08/10 03:54:55;;;;;;;3.58;1.95;;;;;;;24.05;48.12;99659.03;5073616;28;20040;-44
2023/08/10 03:57:21;;;;;;;4.95;2.30;;;;;;;24.01;49.02;99663.47;5073610;28;20035;-45
2023/08/10 03:59:46;;;;;;;5.90;2.20;;;;;;;23.94;48.59;99663.00;5073625;28;20021;-44
2023/08/10 04:02:11;;;;;;;4.40;2.03;;;;;;;23.82;49.59;99652.59;5073499;28;20080;-43
2023/08/10 04:04:38;;;;;;;7.53;2.40;;;;;;;22.57;51.77;99651.53;5073925;28;20056;-46
2023/08/10 04:07:03;;;;;;;9.40;2.45;;;;;;;22.22;53.24;99652.63;5073566;28;20452;-45
2023/08/10 04:09:29;;;;;;;5.40;2.20;;;;;;;21.73;53.72;99653.50;5073632;28;20032;-45
2023/08/10 04:11:55;;;;;;;9.48;2.78;;;;;;;22.55;52.00;99652.91;5073753;28;20020;-45
2023/08/10 04:14:20;;;;;;;7.60;3.65;;;;;;;22.96;50.78;99657.91;5073649;28;20032;-45
2023/08/10 04:16:46;;;;;;;7.68;2.75;;;;;;;23.23;50.01;99657.41;5085006;28;20446;-44
2023/08/10 04:19:11;;;;;;;11.02;2.60;;;;;;;23.50;49.48;99669.56;5093627;28;20020;-45
2023/08/10 04:21:39;;;;;;;30.83;18.60;;;;;;;23.70;49.97;99669.28;5093481;28;20024;-44
2023/08/10 04:24:04;;;;;;;12.52;6.65;;;;;;;23.69;50.53;99669.59;5093854;28;20044;-44
2023/08/10 04:26:30;;;;;;;6.72;3.50;;;;;;;24.18;49.38;99666.44;5093468;28;20050;-46
2023/08/10 04:28:55;;;;;;;4.40;2.63;;;;;;;24.62;48.13;99666.28;5093462;28;20357;-44
2023/08/10 04:31:21;;;;;;;4.72;2.40;;;;;;;25.15;46.36;99671.28;5093543;28;20373;-44
2023/08/10 04:33:46;;;;;;;5.53;2.50;;;;;;;25.21;45.64;99626.53;5093114;28;20052;-43
2023/08/10 04:36:12;;;;;;;5.78;3.00;;;;;;;25.63;44.94;99667.38;5077947;28;20048;-44
2023/08/10 04:38:37;;;;;;;7.95;2.83;;;;;;;25.91;44.15;99668.09;5072758;28;20053;-45
2023/08/10 04:41:03;;;;;;;4.38;2.55;;;;;;;25.67;43.93;99679.28;5072647;28;20032;-44
2023/08/10 04:43:28;;;;;;;5.20;2.53;;;;;;;24.57;46.51;99675.38;5072669;28;20039;-43
2023/08/10 04:45:53;;;;;;;5.13;2.90;;;;;;;24.25;47.33;99648.94;5072735;28;20062;-43
2023/08/10 04:48:20;;;;;;;5.53;3.13;;;;;;;24.72;46.99;99668.84;5101197;28;20027;-44
2023/08/10 04:50:45;;;;;;;7.82;2.75;;;;;;;25.14;46.03;99677.88;5095186;28;20023;-45
2023/08/10 04:53:10;;;;;;;5.50;2.70;;;;;;;25.80;45.04;99680.34;5092651;28;20380;-44
2023/08/10 04:55:36;;;;;;;5.53;2.45;;;;;;;26.81;42.88;99689.97;5092707;28;20332;-46
2023/08/10 04:58:01;;;;;;;8.73;2.80;;;;;;;27.59;41.00;99694.94;5067187;28;20127;-45
2023/08/10 05:00:27;;;;;;;4.13;2.33;;;;;;;27.95;39.98;99696.63;5091454;28;20100;-44
2023/08/10 05:02:53;;;;;;;5.35;2.45;;;;;;;28.58;38.90;99708.06;5089705;28;20436;-45
2023/08/10 05:05:18;;;;;;;8.98;2.50;;;;;;;28.92;38.41;99708.28;5092599;28;20384;-44
2023/08/10 05:07:44;;;;;;;5.03;2.40;;;;;;;29.23;37.61;99705.31;5092722;28;20063;-46
2023/08/10 05:10:10;;;;;;;4.43;2.35;;;;;;;29.49;37.01;99704.34;5092309;28;20640;-45
2023/08/10 05:12:37;;;;;;;6.28;2.30;;;;;;;29.72;36.43;99696.63;5092256;28;20464;-42
2023/08/10 05:15:04;;;;;;;5.43;2.60;;;;;;;29.26;36.54;99701.09;5092102;28;20024;-42
2023/08/10 05:17:30;;;;;;;5.55;2.28;;;;;;;29.53;36.85;99708.03;5092530;28;20475;-42
2023/08/10 05:19:55;;;;;;;4.15;2.20;;;;;;;29.97;36.41;99706.66;5092166;28;20233;-45
2023/08/10 05:22:21;;;;;;;3.03;1.75;;;;;;;29.59;36.09;99693.81;5091413;28;20102;-42
2023/08/10 05:24:46;;;;;;;4.47;1.83;;;;;;;28.91;37.09;99702.00;5089583;28;20063;-43
2023/08/10 05:27:12;;;;;;;2.58;1.52;;;;;;;28.60;37.23;99699.53;5088886;28;20035;-44
2023/08/10 05:29:37;;;;;;;4.07;1.60;;;;;;;28.70;37.20;99701.91;5088249;28;20024;-43
2023/08/10 05:32:03;;;;;;;2.78;1.63;;;;;;;28.63;37.38;99707.06;5091617;28;20046;-43
2023/08/10 05:34:29;;;;;;;1.88;1.58;;;;;;;28.14;37.63;99703.69;5091080;28;20023;-43
2023/08/10 05:36:54;;;;;;;2.97;1.80;;;;;;;27.90;38.27;99691.31;5090748;28;20128;-44
2023/08/10 05:39:20;;;;;;;4.28;1.73;;;;;;;27.86;38.54;99693.84;5090929;28;20059;-43
2023/08/10 05:41:45;;;;;;;1.90;1.50;;;;;;;28.08;38.06;99692.94;5088331;28;20024;-43
2023/08/10 05:44:12;;;;;;;1.63;1.48;;;;;;;28.47;38.12;99696.59;5090761;28;20182;-43
2023/08/10 05:46:38;;;;;;;2.92;1.70;;;;;;;28.46;37.77;99689.53;5090868;28;20051;-42
2023/08/10 05:49:03;;;;;;;1.88;1.48;;;;;;;28.35;38.18;99693.72;5090675;28;20024;-44
2023/08/10 05:51:29;;;;;;;2.85;1.63;;;;;;;28.33;37.84;99697.91;5090679;28;20020;-42
2023/08/10 05:53:54;;;;;;;2.28;1.52;;;;;;;28.36;37.90;99709.00;5090645;28;20145;-42
2023/08/10 05:56:20;;;;;;;2.15;1.52;;;;;;;28.50;37.85;99702.56;5088780;28;20016;-43
2023/08/10 05:58:45;;;;;;;3.75;1.55;;;;;;;28.37;38.17;99715.28;5090642;28;20365;-42
2023/08/10 06:01:11;;;;;;;3.10;1.60;;;;;;;28.33;38.15;99717.88;5090586;28;20059;-41
2023/08/10 06:03:37;;;;;;;4.53;1.80;;;;;;;28.25;38.06;99713.19;5090773;28;20115;-45
2023/08/10 06:06:06;;;;;;;4.65;1.85;;;;;;;28.03;38.16;99712.25;5091025;28;20097;-42
2023/08/10 06:08:33;;;;;;;1.88;1.58;;;;;;;27.56;39.19;99716.63;5091104;28;20061;-42
2023/08/10 06:11:00;;;;;;;5.50;1.73;;;;;;;27.49;39.85;99717.09;5090095;28;20053;-43
2023/08/10 06:13:25;;;;;;;3.17;1.70;;;;;;;27.05;40.32;99727.81;5089638;28;20043;-44
2023/08/10 06:15:50;;;;;;;2.60;1.67;;;;;;;26.80;40.52;99720.31;5089739;28;20442;-44
2023/08/10 06:18:16;;;;;;;3.65;1.70;;;;;;;26.08;41.51;99722.81;5085446;28;20052;-45
2023/08/10 06:20:42;;;;;;;4.82;1.70;;;;;;;26.45;41.43;99728.25;5068911;28;20017;-44
2023/08/10 06:23:08;;;;;;;3.70;1.80;;;;;;;26.22;41.88;99732.88;5069538;28;20025;-43
2023/08/10 06:25:33;;;;;;;3.15;1.77;;;;;;;26.19;42.47;99742.47;5077524;28;20489;-42
2023/08/10 06:27:59;;;;;;;2.33;1.80;;;;;;;26.72;41.13;99739.03;5090456;28;20024;-43
2023/08/10 06:30:25;;;;;;;4.28;1.70;;;;;;;26.93;41.03;99757.63;5090111;28;20487;-44
2023/08/10 06:32:51;;;;;;;2.67;1.67;;;;;;;26.87;41.07;99746.03;5090543;28;20055;-44
2023/08/10 06:35:18;;;;;;;2.22;1.73;;;;;;;26.68;41.04;99740.00;5089765;28;20144;-41
2023/08/10 06:37:44;;;;;;;2.25;1.92;;;;;;;26.82;41.09;99732.53;5087567;28;20071;-43
2023/08/10 06:40:10;;;;;;;3.17;1.80;;;;;;;26.86;41.06;99735.44;5088839;28;20083;-42
2023/08/10 06:42:37;;;;;;;3.95;1.75;;;;;;;27.09;40.16;99728.00;5088615;28;20497;-41
2023/08/10 06:45:03;;;;;;;3.63;1.90;;;;;;;27.35;39.67;99730.88;5088918;28;20020;-41
2023/08/10 06:47:30;;;;;;;4.68;2.00;;;;;;;27.67;38.85;99726.16;5088730;28;20016;-42
2023/08/10 06:49:55;;;;;;;7.43;1.80;;;;;;;27.55;39.29;99736.88;5088633;28;20020;-42
2023/08/10 06:52:21;;;;;;;3.28;1.60;;;;;;;28.06;38.99;99738.13;5089212;28;20042;-42
2023/08/10 06:54:46;;;;;;;2.40;1.70;;;;;;;28.23;38.74;99726.41;5089555;28;20106;-43
2023/08/10 06:57:11;;;;;;;2.05;1.73;;;;;;;28.00;38.42;99742.94;5089704;28;20127;-45
2023/08/10 06:59:37;;;;;;;3.33;1.88;;;;;;;28.43;38.49;99750.38;5089605;28;20020;-45
2023/08/10 07:02:02;;;;;;;5.07;1.90;;;;;;;28.90;38.35;99752.44;5089437;28;20453;-42
2023/08/10 07:04:28;;;;;;;4.35;2.00;;;;;;;28.99;37.57;99749.66;5089504;28;20020;-43
2023/08/10 07:06:54;;;;;;;4.07;1.77;;;;;;;28.97;37.22;99740.97;5089553;28;20404;-43
2023/08/10 07:09:19;;;;;;;2.17;1.80;;;;;;;29.24;36.85;99737.03;5089603;28;20488;-43
2023/08/10 07:11:45;;;;;;;2.83;1.88;;;;;;;29.00;37.24;99734.84;5091529;28;20503;-45
2023/08/10 07:14:10;;;;;;;2.58;1.52;;;;;;;29.12;36.76;99743.16;5093944;28;20384;-44
2023/08/10 07:16:36;;;;;;;2.95;1.92;;;;;;;29.09;36.93;99754.78;5093922;28;20016;-42
2023/08/10 07:19:01;;;;;;;4.85;1.77;;;;;;;29.00;36.96;99752.06;5093916;28;20437;-43
2023/08/10 07:21:27;;;;;;;2.97;1.80;;;;;;;28.70;37.32;99756.66;5093696;28;20119;-42
2023/08/10 07:23:52;;;;;;;1.95;1.58;;;;;;;28.97;36.73;99765.63;5093318;28;20020;-44
2023/08/10 07:26:17;;;;;;;1.95;1.60;;;;;;;28.81;37.14;99760.66;5093495;28;20058;-41
2023/08/10 07:28:45;;;;;;;2.10;1.58;;;;;;;28.91;36.92;99759.50;5093442;28;20039;-43
2023/08/10 07:31:10;;;;;;;2.53;1.60;;;;;;;28.81;37.26;99766.13;5093278;28;20024;-43
2023/08/10 07:33:37;;;;;;;4.15;1.80;;;;;;;28.00;38.57;99755.81;5093457;28;20431;-43
2023/08/10 07:36:03;;;;;;;2.00;1.50;;;;;;;27.42;40.31;99763.22;5093569;28;20077;-44
2023/08/10 07:38:28;;;;;;;3.67;1.90;;;;;;;27.52;40.66;99765.66;5092813;28;20048;-42
2023/08/10 07:40:54;;;;;;;3.30;1.60;;;;;;;27.57;40.72;99756.50;5093040;28;20027;-42
2023/08/10 07:43:20;;;;;;;4.20;1.80;;;;;;;27.35;41.34;99771.06;5093274;28;20019;-44
2023/08/10 07:45:46;;;;;;;3.50;1.75;;;;;;;27.56;40.54;99783.03;5092959;28;20102;-44
2023/08/10 07:48:11;;;;;;;3.97;1.27;;;;;;;26.77;41.70;99775.50;5093481;28;20487;-43
2023/08/10 07:50:37;;;;;;;3.78;1.48;;;;;;;25.81;42.96;99778.16;5093073;28;20081;-43
2023/08/10 07:53:03;;;;;;;3.58;1.33;;;;;;;25.67;43.33;99780.88;5092956;28;20081;-43
2023/08/10 07:55:28;;;;;;;2.85;1.33;;;;;;;26.13;42.50;99787.34;5092915;28;20565;-43
2023/08/10 07:57:54;;;;;;;2.80;1.30;;;;;;;26.00;42.73;99788.16;5093333;28;20016;-43
2023/08/10 08:00:19;;;;;;;4.25;1.40;;;;;;;26.28;42.33;99787.00;5093024;28;20012;-42
2023/08/10 08:02:45;;;;;;;3.25;1.40;;;;;;;26.02;42.99;99797.63;5092808;28;20476;-43
2023/08/10 08:05:11;;;;;;;2.05;1.33;;;;;;;25.89;43.43;99792.97;5093402;28;20028;-41
2023/08/10 08:07:37;;;;;;;2.58;1.50;;;;;;;25.99;43.43;99792.81;5093709;28;20024;-44
2023/08/10 08:10:03;;;;;;;2.42;1.52;;;;;;;25.68;43.41;99801.59;5093316;28;20031;-41
2023/08/10 08:12:29;;;;;;;3.88;1.42;;;;;;;25.27;44.13;99801.56;5093256;28;20607;-43
2023/08/10 08:14:55;;;;;;;1.40;1.30;;;;;;;25.01;45.22;99798.44;5093249;28;20065;-43
2023/08/10 08:17:21;;;;;;;3.80;1.50;;;;;;;25.16;45.00;99806.34;5093533;28;20031;-43
2023/08/10 08:19:47;;;;;;;4.00;1.60;;;;;;;25.18;45.28;99806.84;5092848;28;20013;-43
2023/08/10 08:22:12;;;;;;;3.55;1.52;;;;;;;25.31;45.22;99814.25;5092981;28;20020;-42
2023/08/10 08:24:38;;;;;;;3.13;1.73;;;;;;;25.52;45.03;99811.16;5093064;28;20107;-44
2023/08/10 08:27:03;;;;;;;3.25;1.90;;;;;;;25.44;45.43;99803.69;5092935;28;20089;-41
2023/08/10 08:29:30;;;;;;;3.42;2.05;;;;;;;26.10;44.46;99807.84;5092944;28;20032;-43
2023/08/10 08:31:56;;;;;;;4.20;2.20;;;;;;;25.99;44.77;99806.44;5093101;28;20027;-43
2023/08/10 08:34:21;;;;;;;5.03;1.95;;;;;;;25.58;45.51;99811.88;5092914;28;20024;-43
2023/08/10 08:36:47;;;;;;;3.28;1.70;;;;;;;25.28;46.31;99817.56;5093365;28;20033;-43
2023/08/10 08:39:13;;;;;;;3.13;1.80;;;;;;;25.18;45.73;99815.00;5093191;28;20049;-43
2023/08/10 08:41:39;;;;;;;3.13;1.90;;;;;;;25.36;46.12;99813.38;5092975;28;20031;-42
2023/08/10 08:44:06;;;;;;;4.30;1.98;;;;;;;25.28;46.12;99806.69;5092622;28;20486;-44
2023/08/10 08:46:33;;;;;;;4.80;1.90;;;;;;;24.47;48.02;99815.03;5092809;28;20431;-43
2023/08/10 08:49:01;;;;;;;2.58;1.60;;;;;;;24.24;49.57;99802.28;5092620;28;20024;-43
2023/08/10 08:51:27;;;;;;;4.00;1.65;;;;;;;24.32;49.72;99813.31;5092581;28;20063;-45
2023/08/10 08:53:53;;;;;;;5.03;2.03;;;;;;;24.51;49.61;99816.06;5092620;28;20456;-42
2023/08/10 08:56:19;;;;;;;4.43;2.00;;;;;;;24.33;50.03;99814.13;5092565;28;20403;-43
2023/08/10 08:58:45;;;;;;;3.97;2.35;;;;;;;24.41;49.83;99802.59;5092521;28;20129;-42
2023/08/10 09:01:13;;;;;;;3.17;2.17;;;;;;;23.91;51.43;99804.88;5092513;28;20538;-42
2023/08/10 09:03:39;;;;;;;6.13;2.22;;;;;;;23.75;52.25;99815.09;5092877;28;20032;-44
2023/08/10 09:06:04;;;;;;;2.13;1.70;;;;;;;24.09;51.80;99804.13;5092790;28;20090;-43
2023/08/10 09:08:30;;;;;;;2.47;1.90;;;;;;;24.23;51.84;99797.97;5092450;28;20345;-44
2023/08/10 09:10:56;;;;;;;2.53;1.90;;;;;;;24.11;52.69;99792.97;5092190;28;20396;-42
2023/08/10 09:13:23;;;;;;;4.03;2.28;;;;;;;23.87;52.82;99799.22;5092397;28;20118;-42
2023/08/10 09:16:10;;;;;;;1.95;1.73;;;;;;;24.08;52.76;99798.97;5092130;28;20082;-42
2023/08/10 09:18:42;;;;;;;2.10;1.70;;;;;;;24.54;51.10;99784.75;5092389;28;20058;-45
2023/08/10 09:21:12;;;;;;;2.65;1.80;;;;;;;24.82;50.62;99799.28;5092546;28;20407;-43
2023/08/10 09:23:37;;;;;;;2.05;1.80;;;;;;;24.88;49.95;99797.28;5092375;28;20444;-43
2023/08/10 09:26:08;;;;;;;2.40;1.90;;;;;;;24.80;49.98;99795.25;5092556;28;20451;-44
2023/08/10 09:28:36;;;;;;;2.13;1.77;;;;;;;24.92;49.64;99796.41;5092402;28;20587;-44
2023/08/10 09:31:02;;;;;;;2.17;1.80;;;;;;;24.86;49.07;99786.69;5092683;28;20110;-44
2023/08/10 09:33:31;;;;;;;2.40;1.98;;;;;;;24.58;49.30;99786.59;5091532;28;20119;-43
2023/08/10 09:36:00;;;;;;;2.10;1.63;;;;;;;24.15;50.42;99783.91;5092657;28;20537;-46
2023/08/10 09:38:26;;;;;;;2.30;1.60;;;;;;;24.50;49.93;99787.25;5092220;28;20055;-42
2023/08/10 09:41:15;;;;;;;2.22;1.60;;;;;;;24.52;49.73;99781.50;5092798;28;20031;-45
2023/08/10 09:43:42;;;;;;;3.08;1.60;;;;;;;24.44;49.39;99776.72;5091868;28;20027;-42
2023/08/10 09:46:10;;;;;;;2.00;1.45;;;;;;;24.10;49.95;99778.53;5091760;28;20465;-41
2023/08/10 09:48:37;;;;;;;2.55;2.25;;;;;;;24.29;49.55;99770.38;5091546;28;20111;-45
2023/08/10 09:51:04;;;;;;;2.15;1.70;;;;;;;24.59;48.84;99771.88;5091663;28;20021;-43
2023/08/10 09:53:30;;;;;;;1.92;1.60;;;;;;;24.57;48.93;99765.13;5091481;28;20502;-43
2023/08/10 09:55:56;;;;;;;2.10;1.70;;;;;;;24.49;48.65;99777.44;5091062;28;20476;-42
2023/08/10 09:58:22;;;;;;;2.00;1.80;;;;;;;24.34;49.39;99762.16;5091029;28;20024;-42
2023/08/10 10:00:49;;;;;;;2.25;1.83;;;;;;;24.35;49.43;99765.69;5091590;28;20141;-45
2023/08/10 10:03:29;;;;;;;1.80;1.60;;;;;;;23.75;50.09;99764.28;5091165;28;20417;-43
2023/08/10 10:05:55;;;;;;;3.13;2.25;;;;;;;24.11;50.03;99766.56;5091446;28;20027;-42
2023/08/10 10:08:21;;;;;;;4.28;2.50;;;;;;;24.03;49.95;99756.38;5090574;28;20024;-49
2023/08/10 10:10:48;;;;;;;2.03;1.77;;;;;;;24.49;48.72;99771.22;5090701;28;20016;-44
2023/08/10 10:13:15;;;;;;;2.00;1.80;;;;;;;24.09;50.01;99762.53;5090572;28;20020;-42
2023/08/10 10:15:44;;;;;;;2.22;1.98;;;;;;;24.36;49.28;99759.97;5091030;28;20466;-42
2023/08/10 10:18:10;;;;;;;;;;;;;;;24.84;48.17;99764.41;5091322;28;20031;-43
2023/08/10 10:20:39;;;;;;;1.67;1.58;;;;;;;24.13;49.69;99758.94;5091467;28;19912;-42
2023/08/10 10:23:11;;;;;;;;;;;;;;;24.17;49.81;99748.28;5091213;28;20039;-43
2023/08/10 10:25:38;;;;;;;2.85;1.70;;;;;;;23.75;50.88;99750.72;5090639;28;19962;-42
2023/08/10 10:28:12;;;;;;;2.38;1.42;;;;;;;23.92;50.51;99754.88;5090506;28;20440;-43
2023/08/10 10:30:53;;;;;;;2.08;1.80;;;;;;;23.99;50.63;99750.72;5091004;28;20019;-42
2023/08/10 10:33:19;;;;;;;1.85;1.60;;;;;;;23.54;51.92;99755.56;5091087;28;20079;-44
2023/08/10 10:36:09;;;;;;;2.15;1.88;;;;;;;23.59;51.99;99744.66;5090686;28;20512;-42
2023/08/10 10:38:34;;;;;;;2.85;1.85;;;;;;;23.62;52.13;99748.69;5090466;28;20040;-43
2023/08/10 10:41:34;;;;;;;2.22;1.95;;;;;;;23.88;51.34;99745.72;5090833;28;20031;-42
2023/08/10 10:44:02;;;;;;;3.22;1.98;;;;;;;24.01;51.30;99739.56;5083091;28;20032;-42
2023/08/10 10:46:31;;;;;;;2.17;1.80;;;;;;;24.71;49.61;99746.94;5090007;28;20091;-42
2023/08/10 10:48:57;;;;;;;3.60;2.00;;;;;;;24.75;49.32;99744.41;5090812;28;20172;-43
2023/08/10 10:51:23;;;;;;;3.15;2.00;;;;;;;24.29;49.54;99742.41;5091021;28;20024;-41
2023/08/10 10:53:53;;;;;;;3.92;1.98;;;;;;;23.92;50.81;99744.03;5090763;28;20055;-43
2023/08/10 10:56:19;;;;;;;3.10;2.25;;;;;;;24.02;50.90;99748.50;5090973;28;20020;-41
2023/08/10 10:58:45;;;;;;;3.63;2.50;;;;;;;23.96;51.39;99754.00;5090872;28;20051;-40
2023/08/10 11:01:12;;;;;;;2.85;2.17;;;;;;;24.12;51.42;99749.19;5091028;28;20020;-42
2023/08/10 11:03:42;;;;;;;3.05;1.98;;;;;;;23.74;53.02;99757.25;5090532;28;20024;-41
2023/08/10 11:06:14;;;;;;;3.70;2.60;;;;;;;23.72;53.49;99762.19;5090820;28;20024;-42
2023/08/10 11:08:39;;;;;;;2.10;1.90;;;;;;;23.93;53.25;99756.50;5090723;28;20088;-42
2023/08/10 11:11:05;;;;;;;5.55;2.10;;;;;;;24.10;53.20;99759.50;5090576;28;20028;-45
2023/08/10 11:13:31;;;;;;;6.25;2.33;;;;;;;23.43;55.42;99762.22;5090874;28;20020;-42
2023/08/10 11:15:56;;;;;;;3.10;2.15;;;;;;;23.28;56.45;99763.19;5090508;28;20025;-42
2023/08/10 11:18:25;;;;;;;2.50;2.30;;;;;;;22.87;57.03;99760.84;5090463;28;20092;-43
2023/08/10 11:20:51;;;;;;;2.80;2.40;;;;;;;23.05;56.61;99758.53;5089790;28;20480;-40
2023/08/10 11:23:17;;;;;;;3.75;2.28;;;;;;;22.81;57.62;99767.41;5090365;28;20140;-41
2023/08/10 11:26:04;;;;;;;3.45;2.13;;;;;;;23.37;56.21;99757.94;5090170;28;20440;-41
2023/08/10 11:28:30;;;;;;;4.85;2.10;;;;;;;23.18;56.40;99761.38;5090163;28;20020;-43
2023/08/10 11:31:06;;;;;;;4.18;2.08;;;;;;;23.49;55.77;99768.41;5089951;28;20089;-44
2023/08/10 11:33:32;;;;;;;2.90;2.25;;;;;;;23.70;55.21;99763.53;5090339;28;20024;-43